createdAt,value
2018-08-16T00:03:35.693Z,16
2018-08-16T00:08:37.947Z,15.9
2018-08-16T00:13:40.348Z,16
2018-08-16T00:18:42.640Z,16
2018-08-16T00:23:44.892Z,16.1
2018-08-16T00:28:47.184Z,16.200001
2018-08-16T00:33:49.587Z,16.299999
2018-08-16T00:38:51.767Z,16.299999
2018-08-16T00:43:53.979Z,16.4
2018-08-16T00:48:56.379Z,16.4
2018-08-16T00:53:58.712Z,16.5
2018-08-16T00:59:01.092Z,16.4
2018-08-16T01:04:03.358Z,16.4
2018-08-16T01:09:05.646Z,16.4
2018-08-16T01:14:07.922Z,16.4
2018-08-16T01:19:10.105Z,16.5
2018-08-16T01:24:12.435Z,16.5
2018-08-16T01:29:14.712Z,16.5
2018-08-16T01:34:17.019Z,16.5
2018-08-16T01:39:19.316Z,16.5
2018-08-16T01:44:21.578Z,16.5
2018-08-16T01:49:24.022Z,16.6
2018-08-16T01:54:26.179Z,16.5
2018-08-16T01:59:28.526Z,16.5
2018-08-16T02:04:30.770Z,16.5
2018-08-16T02:09:33.016Z,16.5
2018-08-16T02:14:35.430Z,16.4
2018-08-16T02:19:37.709Z,16.4
2018-08-16T02:24:39.919Z,16.299999
2018-08-16T02:29:42.192Z,16.299999
2018-08-16T02:34:44.567Z,16.299999
2018-08-16T02:39:46.818Z,16.299999
2018-08-16T02:44:49.132Z,16.299999
2018-08-16T02:49:51.479Z,16.299999
2018-08-16T02:54:53.775Z,16.299999
2018-08-16T02:59:56.066Z,16.4
2018-08-16T03:04:58.316Z,16.4
2018-08-16T03:10:00.648Z,16.5
2018-08-16T03:15:02.875Z,16.6
2018-08-16T03:20:05.213Z,16.6
2018-08-16T03:25:07.440Z,16.6
2018-08-16T03:40:14.376Z,16.799999
2018-08-16T03:45:16.689Z,16.799999
2018-08-16T03:50:18.913Z,16.799999
2018-08-16T03:55:21.370Z,16.799999
2018-08-16T04:00:23.558Z,16.799999
2018-08-16T04:05:25.902Z,16.799999
2018-08-16T04:10:28.094Z,16.9
2018-08-16T04:15:30.524Z,16.9
2018-08-16T04:20:32.767Z,16.799999
2018-08-16T04:25:35.118Z,16.799999
2018-08-16T04:30:37.324Z,16.700001
2018-08-16T04:35:39.667Z,16.700001
2018-08-16T04:40:41.844Z,16.6
2018-08-16T04:45:44.191Z,16.6
2018-08-16T04:50:46.486Z,16.6
2018-08-16T04:55:48.764Z,16.6
2018-08-16T05:00:51.064Z,16.5
2018-08-16T05:05:53.447Z,16.6
2018-08-16T05:10:55.648Z,16.6
2018-08-16T05:15:57.895Z,16.5
2018-08-16T05:21:01.689Z,16.5
2018-08-16T05:26:03.740Z,16.6
2018-08-16T05:31:04.978Z,16.6
2018-08-16T05:36:07.329Z,16.700001
2018-08-16T05:41:09.536Z,16.700001
2018-08-16T05:46:11.723Z,16.799999
2018-08-16T05:51:14.020Z,16.799999
2018-08-16T05:56:16.238Z,16.799999
2018-08-16T06:01:18.590Z,16.9
2018-08-16T06:11:23.187Z,17.1
2018-08-16T06:16:25.555Z,17.299999
2018-08-16T06:21:27.865Z,17.4
2018-08-16T06:26:30.062Z,17.5
2018-08-16T06:31:32.317Z,17.5
2018-08-16T06:36:34.685Z,17.6
2018-08-16T06:41:36.869Z,17.6
2018-08-16T06:46:39.231Z,17.799999
2018-08-16T06:51:41.558Z,17.9
2018-08-16T06:56:43.869Z,17.9
2018-08-16T07:01:46.173Z,18
2018-08-16T07:06:48.368Z,18.1
2018-08-16T07:11:50.724Z,18.200001
2018-08-16T07:16:53.065Z,18.299999
2018-08-16T07:21:55.365Z,18.5
2018-08-16T07:26:57.641Z,18.700001
2018-08-16T07:31:59.920Z,18.799999
2018-08-16T07:37:02.236Z,18.9
2018-08-16T07:42:04.598Z,19
2018-08-16T07:47:06.750Z,19
2018-08-16T07:52:09.239Z,19
2018-08-16T07:57:11.383Z,19.1
2018-08-16T08:02:13.729Z,19.200001
2018-08-16T08:07:15.963Z,19.4
2018-08-16T08:12:18.318Z,19.6
2018-08-16T08:17:20.511Z,19.700001
2018-08-16T08:22:22.918Z,19.799999
2018-08-16T08:27:25.260Z,19.9
2018-08-16T08:32:27.469Z,20.1
2018-08-16T08:37:31.216Z,20.5
2018-08-16T08:42:32.033Z,20.700001
2018-08-16T08:47:36.159Z,20.700001
2018-08-16T08:52:36.592Z,20.6
2018-08-16T08:57:38.846Z,20.6
2018-08-16T09:02:41.275Z,20.700001
2018-08-16T09:07:43.546Z,20.799999
2018-08-16T09:12:45.785Z,20.9
2018-08-16T09:17:48.035Z,20.799999
2018-08-16T09:22:50.309Z,20.799999
2018-08-16T09:27:52.771Z,20.799999
2018-08-16T09:32:54.975Z,20.9
2018-08-16T09:37:57.310Z,21
2018-08-16T09:42:59.597Z,21.1
2018-08-16T09:48:01.930Z,21.299999
2018-08-16T09:53:04.128Z,21.6
2018-08-16T09:58:06.431Z,21.799999
2018-08-16T10:03:08.697Z,21.799999
2018-08-16T10:08:11.111Z,21.9
2018-08-16T10:13:13.294Z,22.700001
2018-08-16T10:18:15.662Z,23
2018-08-16T10:23:19.068Z,22.9
2018-08-16T10:28:20.227Z,23
2018-08-16T10:33:22.662Z,23.4
2018-08-16T10:38:25.004Z,23.6
2018-08-16T10:43:28.560Z,23.9
2018-08-16T10:48:29.276Z,24.1
2018-08-16T10:53:31.668Z,24.1
2018-08-16T10:58:34.017Z,24
2018-08-16T11:03:36.318Z,23.9
2018-08-16T11:08:38.516Z,24.299999
2018-08-16T11:13:40.814Z,24.4
2018-08-16T11:18:43.320Z,24.4
2018-08-16T11:23:45.518Z,24.5
2018-08-16T11:28:47.823Z,25.6
2018-08-16T11:33:49.988Z,26.4
2018-08-16T11:38:52.357Z,27.1
2018-08-16T11:43:54.548Z,27.4
2018-08-16T11:48:56.973Z,27.700001
2018-08-16T11:53:59.175Z,27.9
2018-08-16T11:59:01.418Z,28.1
2018-08-16T12:04:03.695Z,28.5
2018-08-16T12:09:06.191Z,28.200001
2018-08-16T12:14:08.420Z,28.700001
2018-08-16T12:19:10.626Z,29
2018-08-16T12:24:12.985Z,28.5
2018-08-16T12:29:15.275Z,28.5
2018-08-16T12:34:17.522Z,29
2018-08-16T12:39:19.845Z,27.700001
2018-08-16T12:44:22.165Z,27.799999
2018-08-16T12:49:24.567Z,28.6
2018-08-16T12:54:26.755Z,29.4
2018-08-16T12:59:28.959Z,29.799999
2018-08-16T13:04:31.381Z,30.1
2018-08-16T13:09:33.569Z,30.200001
2018-08-16T13:14:35.879Z,30.299999
2018-08-16T13:19:38.226Z,30.700001
2018-08-16T13:24:40.603Z,30.9
2018-08-16T13:29:42.791Z,31.1
2018-08-16T13:34:45.236Z,30.700001
2018-08-16T13:39:47.357Z,30.9
2018-08-16T13:44:49.688Z,31.299999
2018-08-16T13:49:52.020Z,31.5
2018-08-16T13:54:54.288Z,31.6
2018-08-16T13:59:56.562Z,31.6
2018-08-16T14:04:59.980Z,31.5
2018-08-16T14:10:01.084Z,31.700001
2018-08-16T14:15:03.584Z,31
2018-08-16T14:20:05.768Z,30.5
2018-08-16T14:25:08.045Z,30.700001
2018-08-16T14:30:10.396Z,31
2018-08-16T14:35:12.591Z,30.700001
2018-08-16T14:40:14.885Z,30.799999
2018-08-16T14:45:17.138Z,30.6
2018-08-16T14:50:19.568Z,29.5
2018-08-16T14:55:21.788Z,28.700001
2018-08-16T15:00:24.109Z,28.9
2018-08-16T15:05:26.353Z,30
2018-08-16T15:10:28.720Z,30.4
2018-08-16T15:15:30.989Z,29.5
2018-08-16T15:20:33.314Z,28.700001
2018-08-16T15:25:35.673Z,28.4
2018-08-16T15:30:37.979Z,29.1
2018-08-16T15:35:40.099Z,29.5
2018-08-16T15:40:43.070Z,29.6
2018-08-16T15:45:44.740Z,29.5
2018-08-16T15:50:47.097Z,29.4
2018-08-16T15:55:49.446Z,29.4
2018-08-16T16:00:51.580Z,29.1
2018-08-16T16:05:53.967Z,28.700001
2018-08-16T16:10:56.139Z,28.1
2018-08-16T16:15:58.544Z,28.1
2018-08-16T16:21:01.228Z,28.200001
2018-08-16T16:26:03.098Z,28
2018-08-16T16:31:06.468Z,27.799999
2018-08-16T16:41:09.933Z,27.4
2018-08-16T16:46:12.281Z,27
2018-08-16T16:51:14.645Z,26.6
2018-08-16T16:56:17.051Z,26.299999
2018-08-16T17:01:19.198Z,26.200001
2018-08-16T17:06:21.429Z,26.1
2018-08-16T17:11:23.768Z,26
2018-08-16T17:16:26.203Z,25.700001
2018-08-16T17:21:28.369Z,25.4
2018-08-16T17:26:30.706Z,25
2018-08-16T17:31:33.133Z,24.700001
2018-08-16T17:36:36.156Z,24.4
2018-08-16T17:46:39.860Z,24
2018-08-16T17:51:42.194Z,23.799999
2018-08-16T17:56:44.327Z,23.5
2018-08-16T18:01:48.067Z,23.299999
2018-08-16T18:06:49.064Z,23.200001
2018-08-16T18:11:51.255Z,23
2018-08-16T18:16:53.613Z,22.700001
2018-08-16T18:21:55.954Z,22.4
2018-08-16T18:26:58.450Z,22.299999
2018-08-16T18:32:00.434Z,22.1
2018-08-16T18:37:02.815Z,22
2018-08-16T18:42:04.997Z,21.799999
2018-08-16T18:47:07.431Z,21.6
2018-08-16T18:52:09.662Z,21.5
2018-08-16T18:57:11.999Z,21.299999
2018-08-16T19:02:14.279Z,21.200001
2018-08-16T19:07:16.472Z,21.1
2018-08-16T19:12:18.789Z,21
2018-08-16T19:17:21.122Z,20.799999
2018-08-16T19:22:23.576Z,20.700001
2018-08-16T19:27:25.701Z,20.5
2018-08-16T19:32:28.012Z,20.4
2018-08-16T19:37:30.315Z,20.200001
2018-08-16T19:42:32.696Z,19.799999
2018-08-16T19:47:34.903Z,19.5
2018-08-16T19:52:37.227Z,19.299999
2018-08-16T19:57:39.415Z,19.299999
2018-08-16T20:02:43.007Z,19.200001
2018-08-16T20:07:45.177Z,19.200001
2018-08-16T20:12:46.450Z,18.799999
2018-08-16T20:17:48.905Z,18.799999
2018-08-16T20:22:50.861Z,18.799999
2018-08-16T20:27:53.271Z,18.6
2018-08-16T20:32:55.486Z,18.6
2018-08-16T20:37:57.868Z,18.6
2018-08-16T20:43:00.144Z,18.5
2018-08-16T20:48:02.492Z,18.5
2018-08-16T20:53:04.853Z,18.4
2018-08-16T20:58:07.011Z,18.299999
2018-08-16T21:03:09.334Z,18.299999
2018-08-16T21:08:11.702Z,18.200001
2018-08-16T21:13:13.843Z,18.200001
2018-08-16T21:18:16.188Z,18.299999
2018-08-16T21:23:18.456Z,18.4
2018-08-16T21:28:20.701Z,18.5
2018-08-16T21:33:23.003Z,18.5
2018-08-16T21:38:25.349Z,18.6
2018-08-16T21:43:27.630Z,18.6
2018-08-16T21:48:29.980Z,18.700001
2018-08-16T21:53:37.283Z,18.799999
2018-08-16T22:03:37.048Z,18.9
2018-08-16T22:08:39.090Z,18.9
2018-08-16T22:13:41.419Z,18.9
2018-08-16T22:18:43.743Z,18.799999
2018-08-16T22:23:46.082Z,18.700001
2018-08-16T22:28:48.304Z,18.700001
2018-08-16T22:33:50.550Z,18.6
2018-08-16T22:38:52.861Z,18.6
2018-08-16T22:43:55.251Z,18.6
2018-08-16T22:48:57.510Z,18.5
2018-08-16T22:53:59.828Z,18.4
2018-08-16T22:59:02.027Z,18.4
2018-08-16T23:04:04.282Z,18.4
2018-08-16T23:09:06.714Z,18.4
2018-08-16T23:14:08.937Z,18.4
2018-08-16T23:19:11.266Z,18.200001
2018-08-16T23:24:13.617Z,17.799999
2018-08-16T23:29:15.858Z,17.5
2018-08-16T23:34:18.105Z,17.200001
2018-08-16T23:39:20.580Z,17
2018-08-16T23:44:22.757Z,16.9
2018-08-16T23:49:24.989Z,16.799999
2018-08-16T23:54:27.270Z,16.700001
2018-08-16T23:59:29.542Z,16.700001
